Time;durP1;ratioP1;P1;durP2;ratioP2;P2;SDS_P1;SDS_P2;PMS_P1;PMS_P2;Temp;Humidity;BMP_temperature;BMP_pressure;BME280_temperature;BME280_humidity;BME280_pressure;Samples;Min_cycle;Max_cycle;Signal;HPM_P1;HPM_P2
2021/03/04 00:00:27;;;;;;;35.25;14.50;;;7.60;81.40;;;;;;5113653;28;20459;-69
2021/03/04 00:02:53;;;;;;;32.75;12.93;;;7.60;81.50;;;;;;5114377;28;20062;-70
2021/03/04 00:05:19;;;;;;;39.78;16.17;;;7.60;81.40;;;;;;5114483;28;20463;-70
2021/03/04 00:07:45;;;;;;;41.33;17.02;;;7.60;81.50;;;;;;5113706;28;20046;-69
2021/03/04 00:10:15;;;;;;;40.78;16.17;;;7.70;81.60;;;;;;5113989;28;20027;-70
2021/03/04 00:12:42;;;;;;;37.80;13.25;;;7.70;81.70;;;;;;5114123;28;20501;-70
2021/03/04 00:15:09;;;;;;;37.38;14.18;;;7.70;81.60;;;;;;5113596;28;20058;-70
2021/03/04 00:17:35;;;;;;;34.85;14.63;;;7.60;81.60;;;;;;5114309;28;20089;-70
2021/03/04 00:20:08;;;;;;;48.13;17.80;;;7.70;81.60;;;;;;5113991;28;20442;-70
2021/03/04 00:22:35;;;;;;;40.23;16.23;;;7.70;81.60;;;;;;5113209;28;20079;-70
2021/03/04 00:25:05;;;;;;;35.83;16.23;;;7.60;81.30;;;;;;5113797;28;20482;-70
2021/03/04 00:27:34;;;;;;;33.65;15.43;;;7.60;81.50;;;;;;5113829;28;20035;-70
2021/03/04 00:30:00;;;;;;;36.75;14.70;;;7.60;82.10;;;;;;5113096;28;20024;-70
2021/03/04 00:32:25;;;;;;;28.70;11.63;;;7.60;81.50;;;;;;5113430;28;20478;-70
2021/03/04 00:34:51;;;;;;;22.17;9.35;;;7.60;81.50;;;;;;5113149;28;20402;-70
2021/03/04 00:37:17;;;;;;;27.13;12.05;;;7.70;81.50;;;;;;5099202;28;20497;-70
2021/03/04 00:39:42;;;;;;;31.48;11.88;;;7.70;81.30;;;;;;5113430;28;20080;-69
2021/03/04 00:42:08;;;;;;;27.75;10.20;;;7.70;81.30;;;;;;5112869;28;20050;-69
2021/03/04 00:44:35;;;;;;;25.95;11.75;;;7.60;81.20;;;;;;5113656;28;20016;-69
2021/03/04 00:47:01;;;;;;;28.27;12.13;;;7.70;81.30;;;;;;5113820;28;20035;-69
2021/03/04 00:49:27;;;;;;;19.50;8.32;;;7.70;81.20;;;;;;5112680;28;20031;-70
2021/03/04 00:51:52;;;;;;;23.10;8.48;;;7.70;81.10;;;;;;5113669;28;20388;-70
2021/03/04 00:54:18;;;;;;;17.77;8.18;;;7.70;80.90;;;;;;5113408;28;20111;-69
2021/03/04 00:56:44;;;;;;;21.17;9.90;;;7.80;80.90;;;;;;5112415;28;20092;-69
2021/03/04 00:59:09;;;;;;;23.52;10.48;;;7.80;80.60;;;;;;5113535;28;20536;-70
2021/03/04 01:01:35;;;;;;;22.92;10.07;;;7.80;80.50;;;;;;5112970;28;20485;-69
2021/03/04 01:04:00;;;;;;;21.05;9.13;;;7.70;80.50;;;;;;5112614;28;20031;-69
2021/03/04 01:06:26;;;;;;;18.77;8.25;;;7.70;80.50;;;;;;5113068;28;20027;-69
2021/03/04 01:08:52;;;;;;;20.88;8.35;;;7.70;80.50;;;;;;5113154;28;20034;-70
2021/03/04 01:11:17;;;;;;;16.88;7.45;;;7.70;80.40;;;;;;5112366;28;20028;-70
2021/03/04 01:13:44;;;;;;;18.88;8.43;;;7.70;80.40;;;;;;5112979;28;20122;-70
2021/03/04 01:16:09;;;;;;;20.75;9.15;;;7.70;80.30;;;;;;5113236;28;20036;-69
2021/03/04 01:18:36;;;;;;;19.17;7.88;;;7.70;80.20;;;;;;5112459;28;20031;-69
2021/03/04 01:21:03;;;;;;;16.05;7.65;;;7.70;80.30;;;;;;5112899;28;20362;-70
2021/03/04 01:23:29;;;;;;;16.00;7.82;;;7.70;80.30;;;;;;5112808;28;20498;-69
2021/03/04 01:25:55;;;;;;;17.45;9.43;;;7.60;80.10;;;;;;5112740;28;20131;-69
2021/03/04 01:28:21;;;;;;;19.45;8.90;;;7.60;80.10;;;;;;5113220;28;20111;-70
2021/03/04 01:30:47;;;;;;;17.40;7.78;;;7.50;80.00;;;;;;5113105;28;20535;-69
2021/03/04 01:33:13;;;;;;;17.75;8.63;;;7.50;80.00;;;;;;5112273;28;20031;-69
2021/03/04 01:35:38;;;;;;;11.98;5.28;;;7.50;79.90;;;;;;5112758;28;20028;-69
2021/03/04 01:38:04;;;;;;;19.17;8.98;;;7.50;80.00;;;;;;5112065;28;20036;-69
2021/03/04 01:40:30;;;;;;;21.05;10.38;;;7.50;80.10;;;;;;5113120;28;20035;-69
2021/03/04 01:42:56;;;;;;;23.70;11.82;;;7.50;80.20;;;;;;5113800;28;20063;-69
2021/03/04 01:45:21;;;;;;;20.45;9.18;;;7.50;80.30;;;;;;5116403;28;20034;-69
2021/03/04 01:47:49;;;;;;;22.25;10.02;;;7.40;80.30;;;;;;5116872;28;20114;-69
2021/03/04 01:50:16;;;;;;;17.27;8.98;;;7.40;80.40;;;;;;5116963;28;20024;-69
2021/03/04 01:52:43;;;;;;;19.73;10.00;;;7.40;80.50;;;;;;5114128;28;20031;-69
2021/03/04 01:55:11;;;;;;;20.55;9.35;;;7.40;80.60;;;;;;5104585;28;20035;-69
2021/03/04 01:57:38;;;;;;;21.73;9.02;;;7.40;80.60;;;;;;5117064;27;20382;-69
2021/03/04 02:00:08;;;;;;;17.45;9.05;;;7.30;80.50;;;;;;5116089;28;20035;-69
2021/03/04 02:02:35;;;;;;;18.17;8.57;;;7.30;80.60;;;;;;5116714;28;20036;-69
2021/03/04 02:05:01;;;;;;;22.17;11.32;;;7.30;80.60;;;;;;5115068;28;20024;-69
2021/03/04 02:07:38;;;;;;;21.42;10.65;;;7.30;80.50;;;;;;5115649;28;20031;-69
2021/03/04 02:10:26;;;;;;;18.58;7.70;;;7.30;80.40;;;;;;5116321;28;20039;-69
2021/03/04 02:12:54;;;;;;;21.23;10.18;;;7.30;80.50;;;;;;5110165;28;20104;-70
2021/03/04 02:15:26;;;;;;;14.27;5.82;;;7.40;80.50;;;;;;5115825;28;20114;-69
2021/03/04 02:17:54;;;;;;;20.95;9.40;;;7.40;80.50;;;;;;5116366;28;20027;-69
2021/03/04 02:20:33;;;;;;;15.93;6.78;;;7.30;80.30;;;;;;5115960;28;20042;-69
2021/03/04 02:23:08;;;;;;;13.30;6.82;;;7.30;80.30;;;;;;5108425;28;20079;-69
2021/03/04 02:25:53;;;;;;;18.58;8.27;;;7.30;80.40;;;;;;5116377;28;20066;-69
2021/03/04 02:28:21;;;;;;;14.13;7.30;;;7.30;80.50;;;;;;5114365;28;20038;-69
2021/03/04 02:30:48;;;;;;;14.50;8.93;;;7.30;80.50;;;;;;5116315;28;20031;-69
2021/03/04 02:33:19;;;;;;;18.60;8.90;;;7.30;80.30;;;;;;5116327;28;20027;-69
2021/03/04 02:35:45;;;;;;;18.42;8.88;;;7.40;80.30;;;;;;5115611;28;20042;-69
2021/03/04 02:38:14;;;;;;;13.98;6.35;;;7.30;80.30;;;;;;5101370;28;20027;-69
2021/03/04 02:40:42;;;;;;;13.18;7.05;;;7.30;80.30;;;;;;5114817;28;20031;-69
2021/03/04 02:43:11;;;;;;;14.45;6.60;;;7.30;80.40;;;;;;5115085;28;20474;-70
2021/03/04 02:45:37;;;;;;;12.45;6.20;;;7.30;80.40;;;;;;5116132;28;20016;-69
2021/03/04 02:48:04;;;;;;;14.32;6.07;;;7.40;80.30;;;;;;5115775;28;20035;-69
2021/03/04 02:50:31;;;;;;;13.82;7.60;;;7.40;80.30;;;;;;5115176;28;20019;-69
2021/03/04 02:52:57;;;;;;;10.85;6.65;;;7.40;80.20;;;;;;5115814;28;20457;-69
2021/03/04 02:55:23;;;;;;;11.55;5.85;;;7.40;80.10;;;;;;5114836;28;20113;-69
2021/03/04 02:57:50;;;;;;;11.25;5.40;;;7.50;80.10;;;;;;5115738;28;20035;-69
2021/03/04 03:00:20;;;;;;;9.57;4.88;;;7.50;80.10;;;;;;5115469;28;20015;-69
2021/03/04 03:02:46;;;;;;;8.80;4.63;;;7.50;80.00;;;;;;5114872;28;20043;-69
2021/03/04 03:05:14;;;;;;;7.68;4.45;;;7.50;79.70;;;;;;5115549;28;20481;-69
2021/03/04 03:07:42;;;;;;;9.75;4.95;;;7.50;79.70;;;;;;5115482;28;20032;-69
2021/03/04 03:10:10;;;;;;;14.07;5.13;;;7.50;79.80;;;;;;5114593;28;20031;-69
2021/03/04 03:12:38;;;;;;;10.68;5.72;;;7.50;79.70;;;;;;5115532;28;20019;-69
2021/03/04 03:15:11;;;;;;;12.23;5.75;;;7.50;79.60;;;;;;5115445;28;20515;-69
2021/03/04 03:17:37;;;;;;;11.30;5.53;;;7.50;79.50;;;;;;5114541;28;20389;-69
2021/03/04 03:20:09;;;;;;;10.70;6.00;;;7.50;79.50;;;;;;5115149;28;20470;-69
2021/03/04 03:22:36;;;;;;;11.48;5.07;;;7.50;79.40;;;;;;5114821;28;20066;-69
2021/03/04 03:25:05;;;;;;;11.30;5.30;;;7.50;79.30;;;;;;5114630;28;20027;-69
2021/03/04 03:27:30;;;;;;;11.73;4.85;;;7.50;79.30;;;;;;5115089;28;20034;-69
2021/03/04 03:29:56;;;;;;;9.38;4.85;;;7.50;79.30;;;;;;5115165;28;20035;-69
2021/03/04 03:32:24;;;;;;;10.57;5.35;;;7.50;79.30;;;;;;5114176;28;20115;-68
2021/03/04 03:34:50;;;;;;;10.13;5.20;;;7.50;79.20;;;;;;5114476;28;20031;-68
2021/03/04 03:37:18;;;;;;;10.27;4.60;;;7.50;79.10;;;;;;5114473;28;20536;-69
2021/03/04 03:39:45;;;;;;;9.82;4.63;;;7.50;79.10;;;;;;5113438;28;20463;-69
2021/03/04 03:42:11;;;;;;;9.40;4.78;;;7.50;79.00;;;;;;5114313;28;20036;-69
2021/03/04 03:44:39;;;;;;;10.38;5.57;;;7.60;78.90;;;;;;5114032;28;20024;-69
2021/03/04 03:47:06;;;;;;;10.50;5.38;;;7.60;78.80;;;;;;5114630;28;20034;-75
2021/03/04 03:49:32;;;;;;;11.55;5.60;;;7.60;78.60;;;;;;5111762;28;20478;-65
2021/03/04 03:52:01;;;;;;;9.23;5.93;;;7.60;78.50;;;;;;5106104;28;20783;-69
2021/03/04 03:54:29;;;;;;;10.63;4.80;;;7.60;78.50;;;;;;5114225;28;20102;-69
2021/03/04 03:56:56;;;;;;;10.73;5.15;;;7.60;78.50;;;;;;5114612;28;20120;-70
2021/03/04 03:59:23;;;;;;;8.90;5.07;;;7.60;78.50;;;;;;5112420;28;20028;-69
2021/03/04 04:01:50;;;;;;;9.77;5.50;;;7.60;78.40;;;;;;5113627;27;20036;-69
2021/03/04 04:04:16;;;;;;;8.20;4.35;;;7.60;78.40;;;;;;5113735;27;20035;-69
2021/03/04 04:06:44;;;;;;;10.15;4.85;;;7.70;78.40;;;;;;5112211;27;20539;-69
2021/03/04 04:09:10;;;;;;;12.00;6.00;;;7.60;79.00;;;;;;5113710;27;20035;-69
2021/03/04 04:11:36;;;;;;;9.77;5.55;;;7.60;78.40;;;;;;5113705;28;20026;-69
2021/03/04 04:14:03;;;;;;;10.50;6.22;;;7.60;78.40;;;;;;5112891;28;20081;-69
2021/03/04 04:16:29;;;;;;;9.80;5.45;;;7.70;78.40;;;;;;5113901;28;20023;-69
2021/03/04 04:18:56;;;;;;;9.52;5.03;;;7.70;78.30;;;;;;5114182;28;20089;-69
2021/03/04 04:21:23;;;;;;;9.75;4.97;;;7.70;78.30;;;;;;5112892;28;20490;-69
2021/03/04 04:23:49;;;;;;;11.20;5.95;;;7.70;78.40;;;;;;5113887;28;20111;-69
2021/03/04 04:26:16;;;;;;;10.68;5.80;;;7.70;78.30;;;;;;5113790;27;20646;-69
2021/03/04 04:28:41;;;;;;;12.27;5.88;;;7.70;78.30;;;;;;5113156;28;20031;-69
2021/03/04 04:31:07;;;;;;;10.50;5.72;;;7.70;78.30;;;;;;5113623;28;20115;-69
2021/03/04 04:33:33;;;;;;;10.77;5.82;;;7.70;78.30;;;;;;5113937;28;20016;-69
2021/03/04 04:35:59;;;;;;;10.05;5.65;;;7.70;78.30;;;;;;5110024;28;20437;-69
2021/03/04 04:38:24;;;;;;;8.55;4.72;;;7.60;78.30;;;;;;5110793;28;20035;-69
2021/03/04 04:40:51;;;;;;;9.85;5.97;;;7.60;78.30;;;;;;5113473;28;20030;-69
2021/03/04 04:43:17;;;;;;;11.07;6.00;;;7.60;78.30;;;;;;5112987;28;20046;-69
2021/03/04 04:45:43;;;;;;;16.30;5.78;;;7.60;78.30;;;;;;5113457;28;20027;-69
2021/03/04 04:48:09;;;;;;;11.23;5.82;;;7.70;78.30;;;;;;5112961;28;20024;-69
2021/03/04 04:50:35;;;;;;;11.60;6.35;;;7.70;78.30;;;;;;5113553;28;20443;-69
2021/03/04 04:53:01;;;;;;;10.35;5.20;;;7.70;78.20;;;;;;5113401;28;20027;-69
2021/03/04 04:55:26;;;;;;;9.38;5.53;;;7.70;78.20;;;;;;5112628;28;20107;-69
2021/03/04 04:57:52;;;;;;;10.27;5.68;;;7.70;78.30;;;;;;5113214;28;20104;-69
2021/03/04 05:00:20;;;;;;;9.20;5.38;;;7.70;78.30;;;;;;5113131;28;20020;-69
2021/03/04 05:02:45;;;;;;;10.65;5.60;;;7.70;78.20;;;;;;5112749;28;20371;-69
2021/03/04 05:05:13;;;;;;;8.15;5.13;;;7.70;78.10;;;;;;5113193;28;20026;-68
2021/03/04 05:07:38;;;;;;;10.52;5.43;;;7.80;78.70;;;;;;5113418;28;20023;-69
2021/03/04 05:10:06;;;;;;;9.93;5.60;;;7.70;77.90;;;;;;5112405;28;20080;-69
2021/03/04 05:12:32;;;;;;;9.65;5.07;;;7.80;78.00;;;;;;5113141;28;20033;-69
2021/03/04 05:14:57;;;;;;;9.20;4.93;;;7.80;77.70;;;;;;5113218;28;20072;-69
2021/03/04 05:17:23;;;;;;;10.18;4.82;;;7.80;77.70;;;;;;5112340;28;20110;-69
2021/03/04 05:19:49;;;;;;;9.55;4.78;;;7.80;77.70;;;;;;5113092;28;20028;-69
2021/03/04 05:22:15;;;;;;;9.05;5.22;;;7.80;77.70;;;;;;5112756;28;20058;-69
2021/03/04 05:24:42;;;;;;;9.80;5.32;;;7.80;77.60;;;;;;5112553;28;20028;-69
2021/03/04 05:27:08;;;;;;;7.45;4.05;;;7.80;77.60;;;;;;5112968;28;20470;-69
2021/03/04 05:29:33;;;;;;;8.93;5.25;;;7.80;77.50;;;;;;5113079;28;20043;-69
2021/03/04 05:31:59;;;;;;;11.57;5.30;;;7.90;77.60;;;;;;5112554;28;20059;-69
2021/03/04 05:34:25;;;;;;;11.15;4.90;;;7.80;77.60;;;;;;5113098;28;20031;-69
2021/03/04 05:36:51;;;;;;;11.65;5.13;;;7.80;77.60;;;;;;5113203;28;20028;-69
2021/03/04 05:39:17;;;;;;;8.90;4.82;;;7.80;77.60;;;;;;5112082;28;20028;-70
2021/03/04 05:41:43;;;;;;;8.10;4.35;;;7.80;77.60;;;;;;5112957;28;20502;-69
2021/03/04 05:44:09;;;;;;;9.98;4.72;;;7.80;77.70;;;;;;5112749;28;20035;-69
2021/03/04 05:46:35;;;;;;;9.93;4.85;;;7.80;77.60;;;;;;5112436;28;20119;-69
2021/03/04 05:49:03;;;;;;;8.23;4.20;;;7.80;77.60;;;;;;5113152;28;20106;-70
2021/03/04 05:51:35;;;;;;;7.75;4.18;;;7.80;77.60;;;;;;5111932;28;20063;-69
2021/03/04 05:54:05;;;;;;;8.02;4.10;;;7.80;77.60;;;;;;5112859;28;20455;-70
2021/03/04 05:56:33;;;;;;;8.13;4.45;;;7.80;77.60;;;;;;5112643;28;20032;-69
2021/03/04 05:59:00;;;;;;;8.15;4.53;;;7.80;78.10;;;;;;5112358;28;20035;-69
2021/03/04 06:01:25;;;;;;;6.80;4.03;;;7.80;77.50;;;;;;5112637;28;20055;-69
2021/03/04 06:03:51;;;;;;;7.22;4.03;;;7.80;77.50;;;;;;5112674;28;20036;-69
2021/03/04 06:06:17;;;;;;;6.30;3.47;;;7.80;77.50;;;;;;5111932;28;20055;-69
2021/03/04 06:08:43;;;;;;;11.63;4.10;;;7.80;77.40;;;;;;5112677;28;20453;-69
2021/03/04 06:11:09;;;;;;;5.60;3.67;;;7.80;77.40;;;;;;5112625;28;20031;-69
2021/03/04 06:13:35;;;;;;;8.75;4.22;;;7.70;77.40;;;;;;5111949;28;20119;-69
2021/03/04 06:16:02;;;;;;;7.10;3.63;;;7.80;77.60;;;;;;5112802;28;20038;-69
2021/03/04 06:18:39;;;;;;;6.13;3.53;;;7.70;77.60;;;;;;5111774;28;20030;-69
2021/03/04 06:21:22;;;;;;;7.30;3.85;;;7.70;77.70;;;;;;5102285;28;20379;-70
2021/03/04 06:23:49;;;;;;;5.45;3.22;;;7.70;77.80;;;;;;5112482;28;20382;-67
2021/03/04 06:26:37;;;;;;;5.88;2.53;;;7.70;77.80;;;;;;5112808;28;20032;-73
2021/03/04 06:29:15;;;;;;;3.40;1.95;;;7.60;77.90;;;;;;5113157;28;20035;-70
2021/03/04 06:31:41;;;;;;;6.00;2.97;;;7.60;78.10;;;;;;5115897;28;20031;-70
2021/03/04 06:34:21;;;;;;;0.88;0.82;;;7.60;78.30;;;;;;5112295;28;20032;-68
2021/03/04 06:37:02;;;;;;;6.22;3.15;;;7.50;78.40;;;;;;5095703;28;20368;-69
2021/03/04 06:39:48;;;;;;;6.78;2.83;;;7.50;78.60;;;;;;5098267;28;20034;-68
2021/03/04 06:42:14;;;;;;;7.35;2.85;;;7.40;78.80;;;;;;5102017;28;20048;-69
2021/03/04 06:44:48;;;;;;;2.90;1.77;;;7.40;79.00;;;;;;5102027;28;20114;-69
2021/03/04 06:47:24;;;;;;;2.28;1.85;;;7.40;79.30;;;;;;5101782;28;20039;-69
2021/03/04 06:49:50;;;;;;;2.75;1.85;;;7.30;79.30;;;;;;5097156;28;20100;-69
2021/03/04 06:52:34;;;;;;;1.65;1.20;;;7.30;79.40;;;;;;5097665;28;20038;-67
2021/03/04 06:55:13;;;;;;;2.60;1.67;;;7.20;79.60;;;;;;5108865;28;20027;-69
2021/03/04 06:57:39;;;;;;;1.95;1.77;;;7.20;79.90;;;;;;5115960;28;20102;-70
2021/03/04 07:00:07;;;;;;;1.05;0.95;;;7.10;80.00;;;;;;5115607;28;20027;-69
2021/03/04 07:02:33;;;;;;;2.55;1.67;;;7.10;80.30;;;;;;5114782;28;20371;-69
2021/03/04 07:05:00;;;;;;;3.10;2.03;;;7.00;80.40;;;;;;5104342;28;20102;-72
2021/03/04 07:07:27;;;;;;;4.57;2.97;;;7.00;80.60;;;;;;5098583;28;20096;-76
2021/03/04 07:09:56;;;;;;;6.72;3.83;;;7.00;80.80;;;;;;5103830;28;20058;-77
2021/03/04 07:12:23;;;;;;;4.88;2.63;;;7.00;80.80;;;;;;5099266;28;20076;-77
2021/03/04 07:14:50;;;;;;;8.57;3.70;;;7.00;80.80;;;;;;5097203;28;20077;-78
2021/03/04 07:17:17;;;;;;;5.32;2.25;;;7.00;80.80;;;;;;5101716;28;20078;-79
2021/03/04 07:19:53;;;;;;;5.88;3.55;;;7.10;80.80;;;;;;5098309;28;20036;-79
2021/03/04 07:22:19;;;;;;;6.85;3.50;;;7.10;80.80;;;;;;5110973;28;20046;-72
2021/03/04 07:24:46;;;;;;;5.72;2.85;;;7.10;80.80;;;;;;5095741;28;20016;-71
2021/03/04 07:27:16;;;;;;;7.22;3.15;;;7.20;81.40;;;;;;5102718;28;20111;-71
2021/03/04 07:29:46;;;;;;;5.65;3.25;;;7.20;80.70;;;;;;5096061;28;20055;-71
2021/03/04 07:32:13;;;;;;;6.78;3.42;;;7.20;80.60;;;;;;5096266;28;20020;-71
2021/03/04 07:34:40;;;;;;;5.20;2.15;;;7.20;80.50;;;;;;5093871;28;20036;-71
2021/03/04 07:37:08;;;;;;;3.88;2.63;;;7.30;80.50;;;;;;5093051;28;20402;-71
2021/03/04 07:39:36;;;;;;;2.83;1.88;;;7.30;80.40;;;;;;5095978;28;20024;-71
2021/03/04 07:42:02;;;;;;;5.60;2.95;;;7.30;80.40;;;;;;5096093;28;20130;-72
2021/03/04 07:44:33;;;;;;;1.20;1.10;;;7.30;80.30;;;;;;5097178;28;20080;-72
2021/03/04 07:47:01;;;;;;;0.75;0.75;;;7.30;80.30;;;;;;5095076;28;20032;-72
2021/03/04 07:49:43;;;;;;;0.65;0.60;;;7.20;80.30;;;;;;5107844;28;20043;-71
2021/03/04 07:52:12;;;;;;;2.08;1.15;;;7.20;80.40;;;;;;5114111;28;20425;-71
2021/03/04 07:54:43;;;;;;;4.60;1.67;;;7.20;80.50;;;;;;5114478;28;20091;-72
2021/03/04 07:57:13;;;;;;;0.60;0.60;;;7.20;80.70;;;;;;5102275;28;20118;-72
2021/03/04 07:59:56;;;;;;;7.53;2.13;;;7.20;80.80;;;;;;5094854;28;20032;-72
2021/03/04 08:02:26;;;;;;;6.38;2.75;;;7.20;80.90;;;;;;5095583;28;20035;-72
2021/03/04 08:04:52;;;;;;;2.92;2.15;;;7.20;81.00;;;;;;5102831;28;20081;-72
2021/03/04 08:07:26;;;;;;;4.55;2.25;;;7.20;81.00;;;;;;5105918;27;20096;-72
2021/03/04 08:09:51;;;;;;;4.50;2.15;;;7.20;81.00;;;;;;5109494;28;20031;-72
2021/03/04 08:12:18;;;;;;;8.57;3.08;;;7.20;80.90;;;;;;5102983;28;20032;-72
2021/03/04 08:14:55;;;;;;;5.25;2.40;;;7.30;81.00;;;;;;5111269;28;20102;-71
2021/03/04 08:17:22;;;;;;;4.82;2.50;;;7.30;81.00;;;;;;5114010;27;20027;-72
2021/03/04 08:19:48;;;;;;;4.72;2.10;;;7.30;81.10;;;;;;5113125;28;20027;-71
2021/03/04 08:22:18;;;;;;;10.40;2.50;;;7.40;81.20;;;;;;5113203;28;20149;-72
2021/03/04 08:24:46;;;;;;;7.40;2.00;;;7.40;81.20;;;;;;5113947;28;20485;-72
2021/03/04 08:27:12;;;;;;;3.00;1.92;;;7.50;81.10;;;;;;5112634;28;20023;-71
2021/03/04 08:29:49;;;;;;;3.47;1.70;;;7.40;81.10;;;;;;5110534;28;20543;-72
2021/03/04 08:32:16;;;;;;;2.72;1.42;;;7.50;81.10;;;;;;5111970;28;20383;-72
2021/03/04 08:34:42;;;;;;;2.67;1.77;;;7.50;81.00;;;;;;5112783;28;20028;-72
2021/03/04 08:37:21;;;;;;;4.22;1.02;;;7.50;80.90;;;;;;5113608;28;20474;-72
2021/03/04 08:39:46;;;;;;;3.95;1.60;;;7.50;80.90;;;;;;5113391;28;20486;-70
2021/03/04 08:42:12;;;;;;;4.32;1.25;;;7.50;81.10;;;;;;5112216;28;20067;-78
2021/03/04 08:44:47;;;;;;;3.38;1.63;;;7.60;81.10;;;;;;5103838;28;20024;-72
2021/03/04 08:47:17;;;;;;;3.17;1.25;;;7.70;81.00;;;;;;5098275;28;20478;-78
2021/03/04 08:49:53;;;;;;;2.20;1.52;;;7.60;80.90;;;;;;5102867;28;20054;-82
2021/03/04 08:52:27;;;;;;;3.40;1.35;;;7.70;81.00;;;;;;5103843;28;20454;-82
2021/03/04 08:54:58;;;;;;;3.97;1.50;;;7.70;80.90;;;;;;5109776;28;20070;-81
2021/03/04 08:57:28;;;;;;;2.28;1.65;;;7.70;80.90;;;;;;5106767;28;20031;-83
2021/03/04 09:00:12;;;;;;;9.52;1.90;;;7.80;80.90;;;;;;5108046;28;20118;-83
2021/03/04 09:02:44;;;;;;;3.60;1.27;;;7.80;80.80;;;;;;5099477;28;20040;-72
2021/03/04 09:05:10;;;;;;;4.72;1.77;;;7.80;80.70;;;;;;5112586;28;20023;-72
2021/03/04 09:07:45;;;;;;;3.83;1.85;;;7.80;80.80;;;;;;5113215;28;20024;-72
2021/03/04 09:10:13;;;;;;;9.00;1.90;;;7.80;80.80;;;;;;5112286;28;20069;-73
2021/03/04 09:12:44;;;;;;;9.90;2.35;;;7.80;80.90;;;;;;5113193;28;20043;-72
2021/03/04 09:15:16;;;;;;;5.65;2.40;;;7.80;81.00;;;;;;5113300;28;20111;-72
2021/03/04 09:17:45;;;;;;;2.25;1.33;;;7.90;81.20;;;;;;5102366;28;20031;-72
2021/03/04 09:20:15;;;;;;;5.05;1.73;;;7.80;81.20;;;;;;5113124;28;20390;-72
2021/03/04 09:22:43;;;;;;;4.95;1.80;;;7.90;81.30;;;;;;5105150;28;20043;-71
2021/03/04 09:25:10;;;;;;;3.55;1.50;;;7.90;81.40;;;;;;5109788;28;20509;-72
2021/03/04 09:27:39;;;;;;;6.72;1.88;;;7.90;81.50;;;;;;5112226;28;20024;-73
2021/03/04 09:30:07;;;;;;;9.10;1.90;;;7.90;81.60;;;;;;5112075;28;20028;-77
2021/03/04 09:32:34;;;;;;;4.22;1.38;;;7.90;81.60;;;;;;5112425;28;20039;-72
2021/03/04 09:35:08;;;;;;;3.13;1.60;;;8.00;81.70;;;;;;5112786;28;20042;-72
2021/03/04 09:37:37;;;;;;;6.38;1.83;;;8.00;81.70;;;;;;5111220;28;20038;-72
2021/03/04 09:40:03;;;;;;;8.13;1.95;;;8.00;81.60;;;;;;5112618;28;20036;-72
2021/03/04 09:42:37;;;;;;;9.30;1.30;;;8.00;81.50;;;;;;5110825;28;20054;-72
2021/03/04 09:45:03;;;;;;;;;;;8.00;81.50;;;;;;5110269;28;20028;-72
2021/03/04 09:47:30;;;;;;;1.17;0.80;;;8.00;81.30;;;;;;5108199;28;19957;-73
2021/03/04 09:49:57;;;;;;;3.08;1.20;;;8.10;81.20;;;;;;5109664;28;20055;-73
2021/03/04 09:52:28;;;;;;;1.70;1.58;;;8.10;81.30;;;;;;5104340;28;20471;-72
2021/03/04 09:55:11;;;;;;;5.97;1.17;;;8.00;81.30;;;;;;5112647;28;20030;-72
2021/03/04 09:57:44;;;;;;;4.15;1.25;;;8.10;81.50;;;;;;5111416;28;20740;-72
2021/03/04 10:00:16;;;;;;;;;;;8.10;81.50;;;;;;5098713;28;20023;-72
2021/03/04 10:02:44;;;;;;;6.03;1.42;;;8.10;81.30;;;;;;5112446;28;20370;-72
2021/03/04 10:05:16;;;;;;;3.25;1.27;;;8.10;81.30;;;;;;5114706;28;20115;-73
2021/03/04 10:07:42;;;;;;;3.97;1.60;;;8.10;81.60;;;;;;5116269;28;20039;-72
2021/03/04 10:10:13;;;;;;;8.18;1.42;;;8.10;81.60;;;;;;5116183;28;20028;-73
2021/03/04 10:12:49;;;;;;;8.13;1.80;;;8.20;81.80;;;;;;5115676;28;20059;-72
2021/03/04 10:15:34;;;;;;;7.93;1.55;;;8.10;81.70;;;;;;5116482;28;20028;-73
2021/03/04 10:18:08;;;;;;;8.00;1.35;;;8.20;81.70;;;;;;5116610;28;20110;-72
2021/03/04 10:20:38;;;;;;;5.65;1.35;;;8.30;81.50;;;;;;5115609;28;20027;-72
2021/03/04 10:23:05;;;;;;;9.40;1.75;;;8.40;81.30;;;;;;5116069;28;20100;-72
2021/03/04 10:25:31;;;;;;;8.32;1.70;;;8.50;81.00;;;;;;5115801;28;20031;-73
2021/03/04 10:27:59;;;;;;;13.65;1.35;;;8.50;80.70;;;;;;5116084;28;20032;-72
2021/03/04 10:30:26;;;;;;;13.90;2.05;;;8.50;80.60;;;;;;5108625;28;20079;-72
2021/03/04 10:32:53;;;;;;;10.57;1.55;;;8.60;80.50;;;;;;5114774;28;20106;-72
2021/03/04 10:35:20;;;;;;;4.57;0.82;;;8.60;80.20;;;;;;5116126;28;20459;-72
2021/03/04 10:37:46;;;;;;;11.73;2.50;;;8.70;80.20;;;;;;5115640;28;20038;-72
2021/03/04 10:40:14;;;;;;;14.07;2.00;;;8.70;79.60;;;;;;5115510;27;20019;-72
2021/03/04 10:42:40;;;;;;;9.50;1.88;;;8.70;79.50;;;;;;5115713;28;20552;-72
2021/03/04 10:45:11;;;;;;;8.70;1.40;;;8.70;79.50;;;;;;5115906;28;20027;-73
2021/03/04 10:47:40;;;;;;;10.80;2.00;;;8.70;79.70;;;;;;5115014;28;20122;-72
2021/03/04 10:50:09;;;;;;;14.82;2.28;;;8.70;79.70;;;;;;5115708;28;20440;-72
2021/03/04 10:52:34;;;;;;;5.75;1.58;;;8.70;79.70;;;;;;5115999;28;20110;-72
2021/03/04 10:55:00;;;;;;;27.77;3.47;;;8.70;79.90;;;;;;5114765;28;20115;-72
2021/03/04 10:57:26;;;;;;;9.85;1.10;;;8.70;80.00;;;;;;5104906;28;20099;-72
2021/03/04 10:59:52;;;;;;;5.15;1.30;;;8.70;80.30;;;;;;5113014;28;20505;-74
2021/03/04 11:02:18;;;;;;;10.55;2.70;;;8.80;80.60;;;;;;5114043;28;20040;-72
2021/03/04 11:04:44;;;;;;;9.68;2.17;;;8.70;80.60;;;;;;5114821;28;20023;-71
2021/03/04 11:07:09;;;;;;;9.23;2.60;;;8.70;81.00;;;;;;5115089;28;20046;-71
2021/03/04 11:09:35;;;;;;;25.98;3.53;;;8.80;81.00;;;;;;5114762;28;20031;-70
2021/03/04 11:12:04;;;;;;;14.48;2.25;;;8.70;81.00;;;;;;5114594;28;20035;-72
2021/03/04 11:14:29;;;;;;;12.15;2.10;;;8.70;80.80;;;;;;5104344;28;20455;-72
2021/03/04 11:16:58;;;;;;;15.55;1.95;;;8.80;81.00;;;;;;5105885;28;20054;-72
2021/03/04 11:19:26;;;;;;;9.02;2.30;;;8.80;81.40;;;;;;5115195;28;20019;-72
2021/03/04 11:21:52;;;;;;;8.98;2.10;;;8.80;81.30;;;;;;5112917;28;20466;-72
2021/03/04 11:24:18;;;;;;;6.05;1.38;;;8.80;81.50;;;;;;5112296;28;20032;-72
2021/03/04 11:26:44;;;;;;;14.48;2.47;;;8.80;82.00;;;;;;5110098;28;20094;-72
2021/03/04 11:29:10;;;;;;;23.95;2.85;;;8.80;81.90;;;;;;5113869;28;20038;-72
2021/03/04 11:31:37;;;;;;;20.33;3.03;;;8.90;81.50;;;;;;5113553;28;20394;-74
2021/03/04 11:34:03;;;;;;;22.15;3.60;;;8.90;81.10;;;;;;5111275;28;20024;-72
2021/03/04 11:36:31;;;;;;;16.63;2.50;;;8.90;80.60;;;;;;5114260;28;20104;-73
2021/03/04 11:38:57;;;;;;;16.08;2.60;;;8.90;80.50;;;;;;5113198;28;20036;-74
2021/03/04 11:41:23;;;;;;;26.40;3.88;;;9.00;80.30;;;;;;5109282;28;20098;-75
2021/03/04 11:43:49;;;;;;;24.17;2.70;;;9.00;80.50;;;;;;5106128;28;20046;-77
2021/03/04 11:46:15;;;;;;;26.67;3.85;;;9.00;81.10;;;;;;5114114;28;20032;-76
2021/03/04 11:48:40;;;;;;;14.88;2.78;;;8.90;80.30;;;;;;5113376;28;20030;-75
2021/03/04 11:51:07;;;;;;;10.30;2.00;;;9.00;80.60;;;;;;5112775;28;20102;-73
2021/03/04 11:53:33;;;;;;;11.05;2.83;;;9.00;80.30;;;;;;5111350;28;20031;-72
2021/03/04 11:55:59;;;;;;;15.45;3.45;;;9.00;80.50;;;;;;5113992;28;20027;-73
2021/03/04 11:58:26;;;;;;;17.25;2.70;;;9.00;80.50;;;;;;5113552;28;20102;-73
2021/03/04 12:00:52;;;;;;;11.35;3.40;;;9.10;80.20;;;;;;5114275;28;20036;-74
2021/03/04 12:03:18;;;;;;;11.00;2.03;;;9.10;80.30;;;;;;5114306;28;20396;-72
2021/03/04 12:05:43;;;;;;;22.98;2.90;;;9.10;80.40;;;;;;5113599;28;20019;-72
2021/03/04 12:08:09;;;;;;;7.93;2.03;;;9.20;80.40;;;;;;5114148;28;20114;-83
2021/03/04 12:10:35;;;;;;;17.45;2.40;;;9.20;80.30;;;;;;5109129;28;20024;-72
2021/03/04 12:13:03;;;;;;;13.25;2.00;;;9.20;80.00;;;;;;5113292;28;20036;-74
2021/03/04 12:15:29;;;;;;;8.68;2.13;;;9.20;79.80;;;;;;5113707;28;20039;-73
2021/03/04 12:17:55;;;;;;;15.48;2.25;;;9.20;79.80;;;;;;5114021;28;20382;-73
2021/03/04 12:20:20;;;;;;;13.57;1.85;;;9.20;79.70;;;;;;5113068;28;20107;-73
2021/03/04 12:22:46;;;;;;;13.68;2.47;;;9.30;79.80;;;;;;5106893;28;20102;-73
2021/03/04 12:25:12;;;;;;;11.93;2.33;;;9.20;79.40;;;;;;5105901;28;20024;-73
2021/03/04 12:27:40;;;;;;;17.88;2.60;;;9.30;79.20;;;;;;5105079;28;20398;-68
2021/03/04 12:30:07;;;;;;;11.32;2.28;;;9.30;79.00;;;;;;5113651;28;20073;-72
2021/03/04 12:32:36;;;;;;;16.27;2.70;;;9.40;79.20;;;;;;5112782;28;20035;-72
2021/03/04 12:35:05;;;;;;;3.45;1.05;;;9.30;78.90;;;;;;5113706;28;20027;-73
2021/03/04 12:37:31;;;;;;;11.85;1.75;;;9.30;79.10;;;;;;5113369;28;20462;-73
2021/03/04 12:39:56;;;;;;;7.38;1.17;;;9.30;79.50;;;;;;5113050;28;20049;-73
2021/03/04 12:42:22;;;;;;;14.88;2.50;;;9.30;80.00;;;;;;5113355;28;20063;-73
2021/03/04 12:44:48;;;;;;;12.00;1.55;;;9.40;79.70;;;;;;5108913;28;20028;-73
2021/03/04 12:47:13;;;;;;;15.15;2.67;;;9.30;79.70;;;;;;5108924;28;20478;-72
2021/03/04 12:49:39;;;;;;;12.65;2.13;;;9.30;78.20;;;;;;5106573;28;20011;-73
2021/03/04 12:52:05;;;;;;;14.05;1.58;;;9.30;78.60;;;;;;5104160;28;20027;-73
2021/03/04 12:54:32;;;;;;;11.25;1.42;;;9.30;79.00;;;;;;5112792;28;20034;-72